sensor_id;sensor_type;location;lat;lon;timestamp;temperature;humidity
27492;DHT22;14927;51.210;6.838;2022-07-31T00:00:12;26.00;47.40
27492;DHT22;14927;51.210;6.838;2022-07-31T00:02:57;25.90;47.60
27492;DHT22;14927;51.210;6.838;2022-07-31T00:05:42;25.90;47.70
27492;DHT22;14927;51.210;6.838;2022-07-31T00:08:27;25.90;47.80
27492;DHT22;14927;51.210;6.838;2022-07-31T00:11:12;25.80;47.80
27492;DHT22;14927;51.210;6.838;2022-07-31T00:13:56;25.80;47.90
27492;DHT22;14927;51.210;6.838;2022-07-31T00:16:41;25.80;47.90
27492;DHT22;14927;51.210;6.838;2022-07-31T00:19:25;25.70;47.80
27492;DHT22;14927;51.210;6.838;2022-07-31T00:22:10;25.70;47.80
27492;DHT22;14927;51.210;6.838;2022-07-31T00:24:55;25.70;48.00
27492;DHT22;14927;51.210;6.838;2022-07-31T00:27:41;25.70;48.20
27492;DHT22;14927;51.210;6.838;2022-07-31T00:30:26;25.60;48.30
27492;DHT22;14927;51.210;6.838;2022-07-31T00:33:10;25.60;48.40
27492;DHT22;14927;51.210;6.838;2022-07-31T00:35:55;25.50;48.60
27492;DHT22;14927;51.210;6.838;2022-07-31T00:38:39;25.50;48.80
27492;DHT22;14927;51.210;6.838;2022-07-31T00:41:24;25.40;48.70
27492;DHT22;14927;51.210;6.838;2022-07-31T00:44:10;25.40;48.70
27492;DHT22;14927;51.210;6.838;2022-07-31T00:46:55;25.40;48.90
27492;DHT22;14927;51.210;6.838;2022-07-31T00:49:40;25.40;48.90
27492;DHT22;14927;51.210;6.838;2022-07-31T00:52:25;25.30;48.80
27492;DHT22;14927;51.210;6.838;2022-07-31T00:55:10;25.30;48.60
27492;DHT22;14927;51.210;6.838;2022-07-31T00:57:54;25.30;48.60
27492;DHT22;14927;51.210;6.838;2022-07-31T01:00:39;25.20;48.60
27492;DHT22;14927;51.210;6.838;2022-07-31T01:03:23;25.20;48.60
27492;DHT22;14927;51.210;6.838;2022-07-31T01:06:08;25.20;48.70
27492;DHT22;14927;51.210;6.838;2022-07-31T01:08:53;25.20;48.60
27492;DHT22;14927;51.210;6.838;2022-07-31T01:11:47;25.10;48.70
27492;DHT22;14927;51.210;6.838;2022-07-31T01:14:38;25.10;49.10
27492;DHT22;14927;51.210;6.838;2022-07-31T01:17:27;25.10;48.90
27492;DHT22;14927;51.210;6.838;2022-07-31T01:20:12;25.10;48.80
27492;DHT22;14927;51.210;6.838;2022-07-31T01:23:12;25.00;48.80
27492;DHT22;14927;51.210;6.838;2022-07-31T01:26:46;25.00;48.90
27492;DHT22;14927;51.210;6.838;2022-07-31T01:29:43;25.00;49.20
27492;DHT22;14927;51.210;6.838;2022-07-31T01:32:34;25.00;49.10
27492;DHT22;14927;51.210;6.838;2022-07-31T01:35:31;24.90;48.90
27492;DHT22;14927;51.210;6.838;2022-07-31T01:38:34;24.90;49.00
27492;DHT22;14927;51.210;6.838;2022-07-31T01:41:25;24.80;48.80
27492;DHT22;14927;51.210;6.838;2022-07-31T01:44:12;24.80;48.60
27492;DHT22;14927;51.210;6.838;2022-07-31T01:46:58;24.80;48.60
27492;DHT22;14927;51.210;6.838;2022-07-31T01:49:43;24.80;48.50
27492;DHT22;14927;51.210;6.838;2022-07-31T01:52:31;24.80;48.50
27492;DHT22;14927;51.210;6.838;2022-07-31T01:55:17;24.80;48.60
27492;DHT22;14927;51.210;6.838;2022-07-31T01:58:02;24.80;48.80
27492;DHT22;14927;51.210;6.838;2022-07-31T02:00:49;24.80;49.60
27492;DHT22;14927;51.210;6.838;2022-07-31T02:03:34;24.70;49.00
27492;DHT22;14927;51.210;6.838;2022-07-31T02:06:21;24.80;49.80
27492;DHT22;14927;51.210;6.838;2022-07-31T02:09:06;24.70;49.20
27492;DHT22;14927;51.210;6.838;2022-07-31T02:11:51;24.70;49.30
27492;DHT22;14927;51.210;6.838;2022-07-31T02:14:36;24.70;49.40
27492;DHT22;14927;51.210;6.838;2022-07-31T02:17:23;24.70;49.50
27492;DHT22;14927;51.210;6.838;2022-07-31T02:20:10;24.70;49.60
27492;DHT22;14927;51.210;6.838;2022-07-31T02:22:58;24.70;49.70
27492;DHT22;14927;51.210;6.838;2022-07-31T02:25:44;24.60;49.70
27492;DHT22;14927;51.210;6.838;2022-07-31T02:28:31;24.70;49.80
27492;DHT22;14927;51.210;6.838;2022-07-31T02:31:18;24.60;50.40
27492;DHT22;14927;51.210;6.838;2022-07-31T02:34:03;24.60;49.70
27492;DHT22;14927;51.210;6.838;2022-07-31T02:36:48;24.60;49.80
27492;DHT22;14927;51.210;6.838;2022-07-31T02:39:35;24.60;49.80
27492;DHT22;14927;51.210;6.838;2022-07-31T02:42:21;24.60;49.90
27492;DHT22;14927;51.210;6.838;2022-07-31T02:45:09;24.60;49.90
27492;DHT22;14927;51.210;6.838;2022-07-31T02:47:54;24.60;50.00
27492;DHT22;14927;51.210;6.838;2022-07-31T02:50:39;24.50;49.80
27492;DHT22;14927;51.210;6.838;2022-07-31T02:53:23;24.50;49.80
27492;DHT22;14927;51.210;6.838;2022-07-31T02:56:08;24.50;49.70
27492;DHT22;14927;51.210;6.838;2022-07-31T02:58:53;24.50;49.70
27492;DHT22;14927;51.210;6.838;2022-07-31T03:01:38;24.50;49.60
27492;DHT22;14927;51.210;6.838;2022-07-31T03:04:22;24.50;49.40
27492;DHT22;14927;51.210;6.838;2022-07-31T03:07:07;24.50;49.30
27492;DHT22;14927;51.210;6.838;2022-07-31T03:09:51;24.40;49.00
27492;DHT22;14927;51.210;6.838;2022-07-31T03:12:39;24.40;48.80
27492;DHT22;14927;51.210;6.838;2022-07-31T03:15:25;24.40;48.90
27492;DHT22;14927;51.210;6.838;2022-07-31T03:18:11;24.40;49.00
27492;DHT22;14927;51.210;6.838;2022-07-31T03:20:57;24.40;49.00
27492;DHT22;14927;51.210;6.838;2022-07-31T03:23:42;24.40;48.70
27492;DHT22;14927;51.210;6.838;2022-07-31T03:26:27;24.40;48.60
27492;DHT22;14927;51.210;6.838;2022-07-31T03:29:11;24.40;48.50
27492;DHT22;14927;51.210;6.838;2022-07-31T03:31:56;24.40;48.60
27492;DHT22;14927;51.210;6.838;2022-07-31T03:34:40;24.40;48.40
27492;DHT22;14927;51.210;6.838;2022-07-31T03:37:25;24.40;48.40
27492;DHT22;14927;51.210;6.838;2022-07-31T03:40:10;24.40;48.40
27492;DHT22;14927;51.210;6.838;2022-07-31T03:42:55;24.40;48.40
27492;DHT22;14927;51.210;6.838;2022-07-31T03:45:40;24.40;48.60
27492;DHT22;14927;51.210;6.838;2022-07-31T03:48:27;24.40;48.80
27492;DHT22;14927;51.210;6.838;2022-07-31T03:51:13;24.40;48.60
27492;DHT22;14927;51.210;6.838;2022-07-31T03:53:58;24.40;48.60
27492;DHT22;14927;51.210;6.838;2022-07-31T03:56:47;24.40;48.60
27492;DHT22;14927;51.210;6.838;2022-07-31T03:59:33;24.40;48.90
27492;DHT22;14927;51.210;6.838;2022-07-31T04:02:18;24.40;48.80
27492;DHT22;14927;51.210;6.838;2022-07-31T04:05:03;24.40;48.90
27492;DHT22;14927;51.210;6.838;2022-07-31T04:07:49;24.40;49.00
27492;DHT22;14927;51.210;6.838;2022-07-31T04:10:34;24.40;49.00
27492;DHT22;14927;51.210;6.838;2022-07-31T04:13:19;24.40;49.00
27492;DHT22;14927;51.210;6.838;2022-07-31T04:16:04;24.40;49.10
27492;DHT22;14927;51.210;6.838;2022-07-31T04:18:49;24.40;49.30
27492;DHT22;14927;51.210;6.838;2022-07-31T04:21:33;24.40;49.30
27492;DHT22;14927;51.210;6.838;2022-07-31T04:24:18;24.30;49.40
27492;DHT22;14927;51.210;6.838;2022-07-31T04:27:04;24.30;49.60
27492;DHT22;14927;51.210;6.838;2022-07-31T04:29:49;24.30;49.60
27492;DHT22;14927;51.210;6.838;2022-07-31T04:32:35;24.30;49.80
27492;DHT22;14927;51.210;6.838;2022-07-31T04:35:19;24.30;50.00
27492;DHT22;14927;51.210;6.838;2022-07-31T04:38:05;24.30;50.10
27492;DHT22;14927;51.210;6.838;2022-07-31T04:40:50;24.20;50.00
27492;DHT22;14927;51.210;6.838;2022-07-31T04:43:34;24.20;50.20
27492;DHT22;14927;51.210;6.838;2022-07-31T04:46:19;24.30;50.40
27492;DHT22;14927;51.210;6.838;2022-07-31T04:49:04;24.30;50.30
27492;DHT22;14927;51.210;6.838;2022-07-31T04:51:49;24.20;50.30
27492;DHT22;14927;51.210;6.838;2022-07-31T04:54:33;24.30;50.50
27492;DHT22;14927;51.210;6.838;2022-07-31T04:57:18;24.20;50.00
27492;DHT22;14927;51.210;6.838;2022-07-31T05:00:04;24.20;49.80
27492;DHT22;14927;51.210;6.838;2022-07-31T05:02:50;24.30;49.80
27492;DHT22;14927;51.210;6.838;2022-07-31T05:05:34;24.30;49.60
27492;DHT22;14927;51.210;6.838;2022-07-31T05:08:19;24.30;49.60
27492;DHT22;14927;51.210;6.838;2022-07-31T05:11:04;24.40;49.60
27492;DHT22;14927;51.210;6.838;2022-07-31T05:14:09;24.40;49.60
27492;DHT22;14927;51.210;6.838;2022-07-31T05:16:55;24.40;49.50
27492;DHT22;14927;51.210;6.838;2022-07-31T05:19:40;24.40;49.40
27492;DHT22;14927;51.210;6.838;2022-07-31T05:22:24;24.40;49.40
27492;DHT22;14927;51.210;6.838;2022-07-31T05:25:09;24.40;49.50
27492;DHT22;14927;51.210;6.838;2022-07-31T05:27:54;24.40;49.40
27492;DHT22;14927;51.210;6.838;2022-07-31T05:30:38;24.50;49.40
27492;DHT22;14927;51.210;6.838;2022-07-31T05:33:23;24.50;49.30
27492;DHT22;14927;51.210;6.838;2022-07-31T05:36:08;24.50;49.30
27492;DHT22;14927;51.210;6.838;2022-07-31T05:38:52;24.50;49.30
27492;DHT22;14927;51.210;6.838;2022-07-31T05:41:37;24.50;49.20
27492;DHT22;14927;51.210;6.838;2022-07-31T05:44:21;24.60;49.30
27492;DHT22;14927;51.210;6.838;2022-07-31T05:47:06;24.60;49.30
27492;DHT22;14927;51.210;6.838;2022-07-31T05:49:51;24.60;49.30
27492;DHT22;14927;51.210;6.838;2022-07-31T05:52:37;24.60;49.30
27492;DHT22;14927;51.210;6.838;2022-07-31T05:55:22;24.60;49.30
27492;DHT22;14927;51.210;6.838;2022-07-31T05:58:07;24.60;49.30
27492;DHT22;14927;51.210;6.838;2022-07-31T06:00:51;24.60;49.30
27492;DHT22;14927;51.210;6.838;2022-07-31T06:03:36;24.60;49.30
27492;DHT22;14927;51.210;6.838;2022-07-31T06:06:23;24.70;49.30
27492;DHT22;14927;51.210;6.838;2022-07-31T06:09:07;24.70;49.30
27492;DHT22;14927;51.210;6.838;2022-07-31T06:11:52;24.70;49.20
27492;DHT22;14927;51.210;6.838;2022-07-31T06:14:36;24.70;49.20
27492;DHT22;14927;51.210;6.838;2022-07-31T06:17:21;24.70;49.30
27492;DHT22;14927;51.210;6.838;2022-07-31T06:20:07;24.70;49.30
27492;DHT22;14927;51.210;6.838;2022-07-31T06:22:53;24.80;49.40
27492;DHT22;14927;51.210;6.838;2022-07-31T06:25:37;24.80;49.30
27492;DHT22;14927;51.210;6.838;2022-07-31T06:28:22;24.80;49.90
27492;DHT22;14927;51.210;6.838;2022-07-31T06:31:07;24.80;49.30
27492;DHT22;14927;51.210;6.838;2022-07-31T06:33:52;24.80;49.30
27492;DHT22;14927;51.210;6.838;2022-07-31T06:36:36;24.80;49.40
27492;DHT22;14927;51.210;6.838;2022-07-31T06:39:21;24.90;49.50
27492;DHT22;14927;51.210;6.838;2022-07-31T06:42:06;24.90;49.40
27492;DHT22;14927;51.210;6.838;2022-07-31T06:44:51;24.90;49.40
27492;DHT22;14927;51.210;6.838;2022-07-31T06:47:36;25.00;49.40
27492;DHT22;14927;51.210;6.838;2022-07-31T06:50:21;25.00;49.40
27492;DHT22;14927;51.210;6.838;2022-07-31T06:53:06;25.00;49.30
27492;DHT22;14927;51.210;6.838;2022-07-31T06:55:50;25.00;49.40
27492;DHT22;14927;51.210;6.838;2022-07-31T06:58:35;25.10;49.40
27492;DHT22;14927;51.210;6.838;2022-07-31T07:01:20;25.10;49.40
27492;DHT22;14927;51.210;6.838;2022-07-31T07:04:04;25.10;49.50
27492;DHT22;14927;51.210;6.838;2022-07-31T07:06:49;25.10;49.50
27492;DHT22;14927;51.210;6.838;2022-07-31T07:09:33;25.20;49.60
27492;DHT22;14927;51.210;6.838;2022-07-31T07:12:18;25.10;49.60
27492;DHT22;14927;51.210;6.838;2022-07-31T07:15:03;25.20;49.80
27492;DHT22;14927;51.210;6.838;2022-07-31T07:17:48;25.20;50.00
27492;DHT22;14927;51.210;6.838;2022-07-31T07:20:33;25.20;50.80
27492;DHT22;14927;51.210;6.838;2022-07-31T07:23:19;25.20;50.50
27492;DHT22;14927;51.210;6.838;2022-07-31T07:26:05;25.30;50.80
27492;DHT22;14927;51.210;6.838;2022-07-31T07:28:49;25.30;50.80
27492;DHT22;14927;51.210;6.838;2022-07-31T07:31:34;25.30;51.00
27492;DHT22;14927;51.210;6.838;2022-07-31T07:34:18;25.30;51.10
27492;DHT22;14927;51.210;6.838;2022-07-31T07:37:03;25.30;51.20
27492;DHT22;14927;51.210;6.838;2022-07-31T07:39:48;25.30;51.30
27492;DHT22;14927;51.210;6.838;2022-07-31T07:42:32;25.30;51.40
27492;DHT22;14927;51.210;6.838;2022-07-31T07:45:17;25.50;51.70
27492;DHT22;14927;51.210;6.838;2022-07-31T07:48:02;25.30;51.60
27492;DHT22;14927;51.210;6.838;2022-07-31T07:50:47;25.30;51.70
27492;DHT22;14927;51.210;6.838;2022-07-31T07:53:32;25.30;51.60
27492;DHT22;14927;51.210;6.838;2022-07-31T07:56:17;25.30;51.50
27492;DHT22;14927;51.210;6.838;2022-07-31T07:59:01;25.40;51.60
27492;DHT22;14927;51.210;6.838;2022-07-31T08:01:46;25.40;51.60
27492;DHT22;14927;51.210;6.838;2022-07-31T08:04:31;25.50;51.50
27492;DHT22;14927;51.210;6.838;2022-07-31T08:07:15;25.50;51.30
27492;DHT22;14927;51.210;6.838;2022-07-31T08:10:00;25.50;51.10
27492;DHT22;14927;51.210;6.838;2022-07-31T08:12:45;25.50;51.10
27492;DHT22;14927;51.210;6.838;2022-07-31T08:15:29;25.50;51.20
27492;DHT22;14927;51.210;6.838;2022-07-31T08:18:15;25.50;51.30
27492;DHT22;14927;51.210;6.838;2022-07-31T08:21:00;25.60;51.60
27492;DHT22;14927;51.210;6.838;2022-07-31T08:23:45;25.60;51.40
27492;DHT22;14927;51.210;6.838;2022-07-31T08:26:30;25.60;51.30
27492;DHT22;14927;51.210;6.838;2022-07-31T08:29:34;25.70;51.30
27492;DHT22;14927;51.210;6.838;2022-07-31T08:32:19;25.70;51.20
27492;DHT22;14927;51.210;6.838;2022-07-31T08:35:05;25.70;51.20
27492;DHT22;14927;51.210;6.838;2022-07-31T08:37:49;25.80;51.20
27492;DHT22;14927;51.210;6.838;2022-07-31T08:40:37;25.80;51.30
27492;DHT22;14927;51.210;6.838;2022-07-31T08:43:21;25.80;51.40
27492;DHT22;14927;51.210;6.838;2022-07-31T08:46:06;25.80;51.20
27492;DHT22;14927;51.210;6.838;2022-07-31T08:48:55;25.90;51.40
27492;DHT22;14927;51.210;6.838;2022-07-31T08:51:42;26.00;51.10
27492;DHT22;14927;51.210;6.838;2022-07-31T08:54:28;26.00;50.90
27492;DHT22;14927;51.210;6.838;2022-07-31T08:57:14;26.10;50.90
27492;DHT22;14927;51.210;6.838;2022-07-31T08:59:59;26.10;50.70
27492;DHT22;14927;51.210;6.838;2022-07-31T09:02:44;26.10;50.80
27492;DHT22;14927;51.210;6.838;2022-07-31T09:05:29;26.10;50.70
27492;DHT22;14927;51.210;6.838;2022-07-31T09:08:14;26.20;50.80
27492;DHT22;14927;51.210;6.838;2022-07-31T09:11:08;26.30;50.70
27492;DHT22;14927;51.210;6.838;2022-07-31T09:13:59;26.20;50.80
27492;DHT22;14927;51.210;6.838;2022-07-31T09:16:47;26.30;51.30
27492;DHT22;14927;51.210;6.838;2022-07-31T09:19:39;26.40;50.50
27492;DHT22;14927;51.210;6.838;2022-07-31T09:22:27;26.50;50.30
27492;DHT22;14927;51.210;6.838;2022-07-31T09:25:15;26.50;50.10
27492;DHT22;14927;51.210;6.838;2022-07-31T09:28:04;26.60;50.20
27492;DHT22;14927;51.210;6.838;2022-07-31T09:30:53;26.60;50.20
27492;DHT22;14927;51.210;6.838;2022-07-31T09:33:42;26.70;49.80
27492;DHT22;14927;51.210;6.838;2022-07-31T09:36:28;26.80;49.80
27492;DHT22;14927;51.210;6.838;2022-07-31T09:39:13;26.80;49.40
27492;DHT22;14927;51.210;6.838;2022-07-31T09:41:58;26.80;49.20
27492;DHT22;14927;51.210;6.838;2022-07-31T09:44:45;26.90;49.10
27492;DHT22;14927;51.210;6.838;2022-07-31T09:47:30;26.90;49.00
27492;DHT22;14927;51.210;6.838;2022-07-31T09:50:22;26.90;48.90
27492;DHT22;14927;51.210;6.838;2022-07-31T09:53:07;27.00;49.20
27492;DHT22;14927;51.210;6.838;2022-07-31T09:55:54;27.00;49.00
27492;DHT22;14927;51.210;6.838;2022-07-31T09:58:41;27.00;48.90
27492;DHT22;14927;51.210;6.838;2022-07-31T10:01:27;27.10;48.70
27492;DHT22;14927;51.210;6.838;2022-07-31T10:04:16;27.10;48.50
27492;DHT22;14927;51.210;6.838;2022-07-31T10:07:02;27.10;48.50
27492;DHT22;14927;51.210;6.838;2022-07-31T10:09:46;27.10;48.40
27492;DHT22;14927;51.210;6.838;2022-07-31T10:12:33;27.20;48.50
27492;DHT22;14927;51.210;6.838;2022-07-31T10:15:22;27.20;48.40
27492;DHT22;14927;51.210;6.838;2022-07-31T10:18:10;27.20;48.40
27492;DHT22;14927;51.210;6.838;2022-07-31T10:20:56;27.20;48.50
27492;DHT22;14927;51.210;6.838;2022-07-31T10:23:43;27.30;48.30
27492;DHT22;14927;51.210;6.838;2022-07-31T10:26:29;27.30;48.30
27492;DHT22;14927;51.210;6.838;2022-07-31T10:29:17;27.30;48.20
27492;DHT22;14927;51.210;6.838;2022-07-31T10:32:02;27.30;48.40
27492;DHT22;14927;51.210;6.838;2022-07-31T10:34:49;27.30;48.60
27492;DHT22;14927;51.210;6.838;2022-07-31T10:38:00;27.30;48.40
27492;DHT22;14927;51.210;6.838;2022-07-31T10:41:05;27.40;48.60
27492;DHT22;14927;51.210;6.838;2022-07-31T10:43:58;27.40;48.10
27492;DHT22;14927;51.210;6.838;2022-07-31T10:46:45;27.50;48.00
27492;DHT22;14927;51.210;6.838;2022-07-31T10:49:47;27.60;48.00
27492;DHT22;14927;51.210;6.838;2022-07-31T10:52:36;27.60;48.10
27492;DHT22;14927;51.210;6.838;2022-07-31T10:55:23;27.70;48.00
27492;DHT22;14927;51.210;6.838;2022-07-31T10:58:14;27.70;47.90
27492;DHT22;14927;51.210;6.838;2022-07-31T11:01:07;27.80;47.80
27492;DHT22;14927;51.210;6.838;2022-07-31T11:03:58;27.90;47.70
27492;DHT22;14927;51.210;6.838;2022-07-31T11:06:44;27.90;47.70
27492;DHT22;14927;51.210;6.838;2022-07-31T11:09:31;28.00;47.20
27492;DHT22;14927;51.210;6.838;2022-07-31T11:12:18;28.10;47.30
27492;DHT22;14927;51.210;6.838;2022-07-31T11:15:04;28.20;46.80
27492;DHT22;14927;51.210;6.838;2022-07-31T11:18:14;28.20;46.70
27492;DHT22;14927;51.210;6.838;2022-07-31T11:21:04;28.30;46.70
27492;DHT22;14927;51.210;6.838;2022-07-31T11:23:52;28.30;46.40
27492;DHT22;14927;51.210;6.838;2022-07-31T11:26:36;28.40;46.30
27492;DHT22;14927;51.210;6.838;2022-07-31T11:29:39;28.40;46.30
27492;DHT22;14927;51.210;6.838;2022-07-31T11:32:24;28.50;46.20
27492;DHT22;14927;51.210;6.838;2022-07-31T11:35:09;28.50;46.10
27492;DHT22;14927;51.210;6.838;2022-07-31T11:37:54;28.50;46.00
27492;DHT22;14927;51.210;6.838;2022-07-31T11:40:39;28.60;46.10
27492;DHT22;14927;51.210;6.838;2022-07-31T11:43:23;28.60;45.80
27492;DHT22;14927;51.210;6.838;2022-07-31T11:46:08;28.70;45.60
27492;DHT22;14927;51.210;6.838;2022-07-31T11:48:54;28.70;45.40
27492;DHT22;14927;51.210;6.838;2022-07-31T11:51:39;28.70;45.40
27492;DHT22;14927;51.210;6.838;2022-07-31T11:54:24;28.70;45.40
27492;DHT22;14927;51.210;6.838;2022-07-31T11:57:09;28.80;45.20
27492;DHT22;14927;51.210;6.838;2022-07-31T11:59:55;28.80;45.40
27492;DHT22;14927;51.210;6.838;2022-07-31T12:02:44;28.90;45.40
27492;DHT22;14927;51.210;6.838;2022-07-31T12:05:30;28.90;45.30
27492;DHT22;14927;51.210;6.838;2022-07-31T12:08:15;28.90;45.00
27492;DHT22;14927;51.210;6.838;2022-07-31T12:11:00;29.00;45.00
27492;DHT22;14927;51.210;6.838;2022-07-31T12:13:48;29.00;44.60
27492;DHT22;14927;51.210;6.838;2022-07-31T12:16:39;29.10;44.50
27492;DHT22;14927;51.210;6.838;2022-07-31T12:19:27;29.10;44.70
27492;DHT22;14927;51.210;6.838;2022-07-31T12:25:00;29.30;43.80
27492;DHT22;14927;51.210;6.838;2022-07-31T12:27:54;29.30;44.10
27492;DHT22;14927;51.210;6.838;2022-07-31T12:30:40;29.40;44.10
27492;DHT22;14927;51.210;6.838;2022-07-31T12:33:26;29.40;43.80
27492;DHT22;14927;51.210;6.838;2022-07-31T12:36:15;29.50;43.50
27492;DHT22;14927;51.210;6.838;2022-07-31T12:39:02;29.60;43.50
27492;DHT22;14927;51.210;6.838;2022-07-31T12:41:47;29.60;43.40
27492;DHT22;14927;51.210;6.838;2022-07-31T12:44:32;29.70;43.40
27492;DHT22;14927;51.210;6.838;2022-07-31T12:47:22;29.70;43.30
27492;DHT22;14927;51.210;6.838;2022-07-31T12:50:11;29.70;43.10
27492;DHT22;14927;51.210;6.838;2022-07-31T12:53:03;29.80;42.90
27492;DHT22;14927;51.210;6.838;2022-07-31T12:55:47;29.80;42.80
27492;DHT22;14927;51.210;6.838;2022-07-31T12:58:32;29.80;42.80
27492;DHT22;14927;51.210;6.838;2022-07-31T13:01:17;29.80;42.70
27492;DHT22;14927;51.210;6.838;2022-07-31T13:04:02;29.90;42.90
27492;DHT22;14927;51.210;6.838;2022-07-31T13:06:50;29.90;42.90
27492;DHT22;14927;51.210;6.838;2022-07-31T13:09:35;29.90;42.90
27492;DHT22;14927;51.210;6.838;2022-07-31T13:12:19;29.90;43.00
27492;DHT22;14927;51.210;6.838;2022-07-31T13:15:04;29.90;43.10
27492;DHT22;14927;51.210;6.838;2022-07-31T13:17:49;29.90;43.20
27492;DHT22;14927;51.210;6.838;2022-07-31T13:20:34;29.90;43.20
27492;DHT22;14927;51.210;6.838;2022-07-31T13:23:18;29.90;43.30
27492;DHT22;14927;51.210;6.838;2022-07-31T13:26:04;29.80;43.20
27492;DHT22;14927;51.210;6.838;2022-07-31T13:28:50;29.80;43.30
27492;DHT22;14927;51.210;6.838;2022-07-31T13:31:34;29.90;43.40
27492;DHT22;14927;51.210;6.838;2022-07-31T13:34:19;29.90;43.40
27492;DHT22;14927;51.210;6.838;2022-07-31T13:37:03;29.90;43.50
27492;DHT22;14927;51.210;6.838;2022-07-31T13:39:49;29.90;43.60
27492;DHT22;14927;51.210;6.838;2022-07-31T13:42:34;29.90;43.60
27492;DHT22;14927;51.210;6.838;2022-07-31T13:45:19;29.90;43.60
27492;DHT22;14927;51.210;6.838;2022-07-31T13:48:04;29.80;43.60
27492;DHT22;14927;51.210;6.838;2022-07-31T13:50:49;29.90;43.60
27492;DHT22;14927;51.210;6.838;2022-07-31T13:53:34;29.90;43.70
27492;DHT22;14927;51.210;6.838;2022-07-31T13:56:19;29.90;43.90
27492;DHT22;14927;51.210;6.838;2022-07-31T13:59:04;29.90;43.80
27492;DHT22;14927;51.210;6.838;2022-07-31T14:01:49;29.90;43.70
27492;DHT22;14927;51.210;6.838;2022-07-31T14:04:36;29.90;43.40
27492;DHT22;14927;51.210;6.838;2022-07-31T14:07:21;30.00;43.50
27492;DHT22;14927;51.210;6.838;2022-07-31T14:10:06;30.00;43.60
27492;DHT22;14927;51.210;6.838;2022-07-31T14:12:51;30.00;43.50
27492;DHT22;14927;51.210;6.838;2022-07-31T14:15:36;30.10;43.30
27492;DHT22;14927;51.210;6.838;2022-07-31T14:18:22;30.20;43.10
27492;DHT22;14927;51.210;6.838;2022-07-31T14:21:07;30.20;42.80
27492;DHT22;14927;51.210;6.838;2022-07-31T14:23:51;30.20;42.90
27492;DHT22;14927;51.210;6.838;2022-07-31T14:26:36;30.30;42.90
27492;DHT22;14927;51.210;6.838;2022-07-31T14:29:21;30.30;42.50
27492;DHT22;14927;51.210;6.838;2022-07-31T14:32:06;30.30;42.50
27492;DHT22;14927;51.210;6.838;2022-07-31T14:34:51;30.40;42.40
27492;DHT22;14927;51.210;6.838;2022-07-31T14:37:36;30.40;42.40
27492;DHT22;14927;51.210;6.838;2022-07-31T14:40:21;30.40;42.20
27492;DHT22;14927;51.210;6.838;2022-07-31T14:43:06;30.50;42.20
27492;DHT22;14927;51.210;6.838;2022-07-31T14:45:53;30.50;42.00
27492;DHT22;14927;51.210;6.838;2022-07-31T14:48:37;30.50;42.00
27492;DHT22;14927;51.210;6.838;2022-07-31T14:51:22;30.60;42.30
27492;DHT22;14927;51.210;6.838;2022-07-31T14:54:06;30.70;41.90
27492;DHT22;14927;51.210;6.838;2022-07-31T14:56:51;30.70;41.60
27492;DHT22;14927;51.210;6.838;2022-07-31T14:59:36;30.80;41.60
27492;DHT22;14927;51.210;6.838;2022-07-31T15:02:20;30.80;41.40
27492;DHT22;14927;51.210;6.838;2022-07-31T15:05:05;30.80;41.30
27492;DHT22;14927;51.210;6.838;2022-07-31T15:07:51;30.80;41.20
27492;DHT22;14927;51.210;6.838;2022-07-31T15:10:35;30.90;41.10
27492;DHT22;14927;51.210;6.838;2022-07-31T15:13:21;30.90;41.00
27492;DHT22;14927;51.210;6.838;2022-07-31T15:16:05;30.90;40.90
27492;DHT22;14927;51.210;6.838;2022-07-31T15:18:54;30.90;41.10
27492;DHT22;14927;51.210;6.838;2022-07-31T15:21:39;31.00;41.00
27492;DHT22;14927;51.210;6.838;2022-07-31T15:24:23;31.00;40.70
27492;DHT22;14927;51.210;6.838;2022-07-31T15:27:08;31.00;40.60
27492;DHT22;14927;51.210;6.838;2022-07-31T15:29:53;31.00;40.70
27492;DHT22;14927;51.210;6.838;2022-07-31T15:32:38;31.00;41.00
27492;DHT22;14927;51.210;6.838;2022-07-31T15:35:23;30.90;40.80
27492;DHT22;14927;51.210;6.838;2022-07-31T15:38:08;30.90;40.80
27492;DHT22;14927;51.210;6.838;2022-07-31T15:40:52;30.90;40.40
27492;DHT22;14927;51.210;6.838;2022-07-31T15:43:37;30.90;40.40
27492;DHT22;14927;51.210;6.838;2022-07-31T15:46:21;30.90;40.60
27492;DHT22;14927;51.210;6.838;2022-07-31T15:49:06;30.80;40.70
27492;DHT22;14927;51.210;6.838;2022-07-31T15:51:51;30.80;40.80
27492;DHT22;14927;51.210;6.838;2022-07-31T15:54:35;30.80;40.80
27492;DHT22;14927;51.210;6.838;2022-07-31T15:57:20;30.80;40.80
27492;DHT22;14927;51.210;6.838;2022-07-31T16:00:07;30.80;41.00
27492;DHT22;14927;51.210;6.838;2022-07-31T16:02:54;30.80;41.10
27492;DHT22;14927;51.210;6.838;2022-07-31T16:05:38;30.80;41.10
27492;DHT22;14927;51.210;6.838;2022-07-31T16:08:23;30.80;41.20
27492;DHT22;14927;51.210;6.838;2022-07-31T16:11:08;30.80;41.10
27492;DHT22;14927;51.210;6.838;2022-07-31T16:13:52;30.80;41.20
27492;DHT22;14927;51.210;6.838;2022-07-31T16:16:37;30.80;41.20
27492;DHT22;14927;51.210;6.838;2022-07-31T16:19:22;30.80;41.20
27492;DHT22;14927;51.210;6.838;2022-07-31T16:22:09;30.80;41.10
27492;DHT22;14927;51.210;6.838;2022-07-31T16:24:54;30.80;41.20
27492;DHT22;14927;51.210;6.838;2022-07-31T16:27:38;30.70;41.30
27492;DHT22;14927;51.210;6.838;2022-07-31T16:30:23;30.70;41.50
27492;DHT22;14927;51.210;6.838;2022-07-31T16:33:10;30.70;41.80
27492;DHT22;14927;51.210;6.838;2022-07-31T16:35:55;30.60;41.80
27492;DHT22;14927;51.210;6.838;2022-07-31T16:38:40;30.60;41.80
27492;DHT22;14927;51.210;6.838;2022-07-31T16:41:25;30.60;42.00
27492;DHT22;14927;51.210;6.838;2022-07-31T16:44:10;30.50;42.00
27492;DHT22;14927;51.210;6.838;2022-07-31T16:46:54;30.50;42.80
27492;DHT22;14927;51.210;6.838;2022-07-31T16:49:39;30.50;42.30
27492;DHT22;14927;51.210;6.838;2022-07-31T16:52:25;30.50;42.20
27492;DHT22;14927;51.210;6.838;2022-07-31T16:55:09;30.40;42.20
27492;DHT22;14927;51.210;6.838;2022-07-31T16:57:54;30.40;42.20
27492;DHT22;14927;51.210;6.838;2022-07-31T17:00:39;30.40;42.30
27492;DHT22;14927;51.210;6.838;2022-07-31T17:03:23;30.40;42.30
27492;DHT22;14927;51.210;6.838;2022-07-31T17:06:08;30.30;42.20
27492;DHT22;14927;51.210;6.838;2022-07-31T17:08:53;30.30;42.40
27492;DHT22;14927;51.210;6.838;2022-07-31T17:11:37;30.20;42.30
27492;DHT22;14927;51.210;6.838;2022-07-31T17:14:24;30.20;42.30
27492;DHT22;14927;51.210;6.838;2022-07-31T17:17:09;30.20;42.50
27492;DHT22;14927;51.210;6.838;2022-07-31T17:19:54;30.10;42.40
27492;DHT22;14927;51.210;6.838;2022-07-31T17:22:39;30.20;42.50
27492;DHT22;14927;51.210;6.838;2022-07-31T17:25:24;30.10;42.50
27492;DHT22;14927;51.210;6.838;2022-07-31T17:28:09;30.10;42.50
27492;DHT22;14927;51.210;6.838;2022-07-31T17:30:54;30.10;42.60